Date,TemperatureHighF,TemperatureAvgF,TemperatureLowF,DewpointHighF,DewpointAvgF,DewpointLowF,HumidityHigh,HumidityAvg,HumidityLow,PressureMaxIn,PressureMinIn,WindSpeedMaxMPH,WindSpeedAvgMPH,GustSpeedMaxMPH,PrecipitationSumIn
2013-1-1,76.1,65.4,56.5,76.0,65.5,57.0,100,100,100,30.14,29.97,7,1,0,0.00
2013-1-2,78.3,70.7,61.0,78.0,70.7,61.0,100,100,100,30.00,29.89,5,0,0,0.00
2013-1-3,77.0,77.0,77.0,77.0,77.0,77.0,100,100,100,30.07,29.95,0,0,0,0.00
2013-1-4,77.0,70.6,61.8,77.0,70.6,62.0,100,100,100,30.17,30.03,8,1,0,0.00
2013-1-5,77.7,67.9,61.3,78.0,67.9,61.0,100,100,100,30.19,30.10,8,1,0,0.00
2013-1-6,67.8,65.0,64.3,68.0,65.4,64.0,100,100,100,30.11,29.98,0,0,0,0.00
2013-1-7,72.0,68.2,64.5,72.0,68.5,65.0,100,100,100,30.12,30.02,5,1,0,0.00
2013-1-8,78.6,72.2,67.6,79.0,72.2,68.0,100,100,100,30.15,30.03,5,1,0,0.00
2013-1-9,79.6,73.7,69.9,80.0,73.8,70.0,100,100,100,30.22,30.11,9,2,0,0.00
2013-1-10,78.6,73.4,68.6,79.0,73.5,69.0,100,100,100,30.25,30.15,7,1,0,0.00
2013-1-11,78.1,72.4,66.9,78.0,72.4,67.0,100,100,100,30.20,30.09,10,2,0,0.00
2013-1-12,80.1,72.0,64.0,80.0,72.2,64.0,100,100,100,30.13,30.03,5,1,0,0.00
2013-1-13,79.6,72.5,66.9,80.0,72.5,67.0,100,100,100,30.08,30.00,8,2,0,0.00
2013-1-14,78.8,72.0,65.3,79.0,72.0,65.0,100,100,100,30.12,30.06,6,1,0,0.00
2013-1-15,71.5,69.9,69.4,72.0,70.0,69.0,100,100,100,30.08,29.98,2,0,0,0.00
2013-1-16,69.8,69.8,69.8,70.0,70.0,70.0,100,100,100,30.03,29.94,0,0,0,0.00
2013-1-17,69.8,69.8,69.8,70.0,70.0,70.0,100,100,100,30.00,29.83,0,0,0,0.00
2013-1-18,69.8,69.8,69.8,70.0,70.0,70.0,100,100,100,30.17,30.00,0,0,0,0.00
2013-1-19,69.8,69.8,69.8,70.0,70.0,70.0,100,100,100,30.18,30.05,0,0,0,0.00
2013-1-20,69.8,69.4,67.1,70.0,65.8,42.0,100,91,41,30.09,29.98,2,0,0,0.00
2013-1-21,75.6,69.2,64.7,46.0,39.1,30.0,44,34,24,30.00,29.90,9,1,0,0.00
2013-1-22,68.8,63.2,57.0,29.0,-4.4,-99.9,26,9,1,30.18,29.94,15,3,0,0.00
2013-1-23,68.8,60.3,54.7,5.0,-38.0,-99.9,13,4,1,30.26,30.17,6,2,0,0.00
2013-1-24,73.2,61.2,52.5,9.0,-50.9,-99.9,17,4,1,30.24,30.14,5,1,0,0.00
2013-1-25,75.3,63.6,56.0,9.0,-43.7,-99.9,15,5,1,30.22,30.10,8,2,0,0.00
2013-1-26,73.9,64.3,57.5,6.0,-64.7,-202.0,11,2,1,30.20,30.09,6,1,0,0.00
2013-1-27,76.3,67.2,58.3,11.0,-37.6,-99.9,15,6,1,30.23,30.14,9,1,0,0.00
2013-1-28,73.9,70.6,69.1,10.0,-45.4,-202.0,10,3,1,30.27,30.17,12,3,0,0.00
2013-1-29,77.9,71.1,64.5,19.0,-18.8,-99.9,17,7,1,30.18,30.04,10,2,0,0.00
2013-1-30,70.8,69.3,68.3,12.0,8.0,2.0,11,9,7,30.05,29.99,5,1,0,0.00
2013-2-1,66.9,61.1,53.8,-33.0,-95.9,-202.0,2,0,2,30.25,30.18,14,2,0,0.00
2013-2-2,53.8,53.8,53.8,-33.0,-33.0,-33.0,2,2,2,30.20,30.06,0,0,0,0.00
2013-2-3,71.6,61.5,53.3,-26.0,-88.9,-99.9,3,0,1,30.11,29.98,10,3,0,0.00
2013-2-4,71.5,59.4,49.5,-12.0,-82.1,-202.0,7,1,1,30.05,29.95,7,2,0,0.00
2013-2-5,75.1,63.0,53.2,-4.0,-90.2,-99.9,9,1,1,30.02,29.91,6,1,0,0.00
2013-2-6,75.8,68.9,59.9,-42.0,-98.5,-202.0,1,0,1,30.04,29.94,6,1,0,0.00
2013-2-7,77.4,71.1,64.0,-99.9,-99.9,-202.0,0,0,100,30.00,29.81,12,3,0,0.00
2013-2-8,78.6,69.4,63.7,-99.9,-99.9,-202.0,0,0,100,29.99,29.78,13,2,0,0.00
2013-2-9,74.6,66.6,58.6,-9.0,-76.9,-202.0,6,1,1,30.12,29.97,10,2,0,0.00
2013-2-10,76.7,71.0,66.6,-99.9,-99.9,-202.0,0,0,100,30.20,30.10,11,3,0,0.00
2013-2-11,77.4,72.4,69.6,-99.9,-99.9,-202.0,0,0,100,30.14,30.02,13,3,0,0.00
2013-2-12,81.8,72.6,65.8,12.0,-94.6,-202.0,7,0,1,30.03,29.86,10,3,0,0.00
2013-2-13,83.4,74.7,65.5,26.0,-77.4,-202.0,12,1,1,29.90,29.75,16,7,0,0.00
2013-2-14,73.0,65.1,59.8,-99.9,-99.9,-202.0,0,0,100,29.97,29.86,9,1,0,0.00
2013-2-15,69.6,62.7,58.4,-99.9,-99.9,-202.0,0,0,100,29.98,29.87,7,1,0,0.00
2013-2-16,67.8,61.5,51.9,-99.9,-99.9,-202.0,0,0,100,29.99,29.80,23,7,0,0.00
2013-2-17,54.4,47.5,42.2,-99.9,-99.9,-202.0,0,0,100,30.25,30.00,17,4,0,0.00
2013-2-18,68.1,57.0,46.1,-10.0,-90.2,-202.0,4,0,1,30.26,30.15,13,2,0,0.00
2013-2-19,74.9,66.8,55.3,34.0,-54.7,-202.0,23,5,2,30.13,29.98,12,2,0,0.00
2013-2-20,74.0,66.2,59.8,12.0,-79.0,-202.0,9,1,1,30.05,29.95,10,1,0,0.00
2013-2-21,79.0,70.9,64.8,37.0,-68.3,-202.0,22,3,1,30.03,29.94,7,1,0,0.00
2013-2-22,78.6,72.1,64.8,12.0,-80.3,-202.0,8,1,1,30.02,29.94,11,2,0,0.00
2013-2-23,84.0,74.4,68.1,63.0,-57.5,-202.0,50,8,2,29.96,29.80,14,3,0,0.00
2013-2-24,80.5,71.6,67.9,41.0,-81.6,-202.0,25,2,1,29.89,29.80,10,4,0,0.00
2013-2-25,81.6,74.5,68.4,48.0,-61.1,-202.0,31,5,1,29.85,29.71,10,2,0,0.00
2013-2-26,82.0,75.8,68.6,62.0,-25.9,-202.0,51,13,1,29.79,29.68,21,8,0,0.00
2013-2-27,74.7,67.7,63.2,45.0,-53.8,-202.0,35,6,1,29.89,29.78,12,4,0,0.00
2013-2-28,72.7,64.0,55.9,55.0,-23.5,-202.0,56,18,1,29.92,29.79,12,5,0,0.00
2013-3-1,63.2,58.4,54.2,22.0,-57.0,-202.0,21,4,1,29.90,29.82,15,5,0,0.00
2013-3-2,58.6,53.7,48.6,14.0,-74.6,-202.0,17,2,1,29.94,29.85,24,8,0,0.00
2013-3-3,55.1,49.4,41.6,-99.9,-99.9,-202.0,0,0,100,30.08,29.89,15,6,0,0.00
2013-3-4,63.1,51.5,44.9,43.0,-63.3,-202.0,49,9,14,30.15,30.05,9,0,0,0.00
2013-3-5,65.3,53.7,52.9,29.0,-91.8,-202.0,26,1,7,30.10,29.94,7,0,0,0.00
2013-3-6,68.4,61.4,50.5,65.0,-6.8,-99.9,91,18,7,30.04,29.85,20,6,0,0.00
2013-3-7,66.9,55.3,45.7,44.0,-65.4,-202.0,44,7,2,30.11,30.00,15,3,0,0.00
2013-3-8,69.4,60.5,50.1,54.0,-27.2,-202.0,59,14,2,30.14,30.05,5,1,0,0.00
2013-3-9,74.2,65.0,55.3,70.0,-11.1,-99.9,87,25,3,30.15,30.04,4,0,0,0.00
2013-3-10,75.6,68.9,64.0,69.0,18.4,-39.0,80,26,1,30.10,30.02,7,2,0,0.00
2013-3-11,75.6,70.0,63.4,62.0,-7.5,-99.9,63,18,1,30.05,29.87,10,3,0,0.00
2013-3-12,73.0,70.0,62.4,13.0,-53.6,-202.0,10,3,1,29.92,29.81,11,6,0,0.00
2013-3-13,70.6,62.5,55.1,39.0,-54.5,-202.0,33,8,2,30.07,29.91,12,2,0,0.00
2013-3-14,64.7,57.6,53.1,13.0,-82.6,-202.0,13,1,3,30.15,30.04,13,3,0,0.00
2013-3-15,70.4,60.7,55.9,53.0,-54.0,-202.0,54,10,1,30.19,30.08,10,1,0,0.00
2013-3-16,73.7,62.2,53.3,57.0,-54.9,-202.0,56,9,1,30.12,29.98,9,2,0,0.00
2013-3-17,74.6,66.2,56.5,52.0,-42.5,-202.0,46,8,1,30.08,29.94,10,2,0,0.00
2013-3-18,76.8,70.8,65.5,46.0,-45.0,-202.0,34,8,2,29.99,29.84,10,3,0,0.00
2013-3-19,78.3,70.7,64.7,55.0,-50.2,-202.0,44,9,3,29.93,29.82,9,1,0,0.00
2013-3-20,76.0,71.2,63.7,28.0,-44.9,-202.0,18,5,2,29.89,29.70,14,3,0,0.00
2013-3-21,70.1,61.9,55.6,49.0,-52.3,-202.0,47,9,1,29.88,29.74,10,2,0,0.00
2013-3-22,74.4,64.2,53.3,63.0,-48.5,-202.0,67,14,1,29.94,29.83,6,1,0,0.00
2013-3-23,84.5,73.9,67.4,85.0,-21.2,-202.0,100,31,1,29.91,29.67,19,3,0,0.00
2013-3-24,84.1,74.8,69.9,84.0,16.9,-202.0,100,57,1,29.80,29.55,26,5,0,0.00
2013-3-25,74.4,74.4,74.4,74.0,74.0,74.0,100,100,100,29.92,29.64,0,0,0,0.00
2013-3-26,74.4,61.2,48.9,74.0,-8.2,-99.9,100,37,3,30.13,29.92,17,6,0,0.00
2013-3-27,63.9,54.1,46.8,42.0,-60.0,-202.0,46,8,1,30.20,30.11,12,2,0,0.00
2013-3-28,68.3,57.9,47.4,56.0,-27.0,-202.0,65,19,2,30.21,30.11,10,2,0,0.00
2013-3-29,73.2,63.6,54.1,73.0,-9.5,-99.9,100,31,3,30.24,30.14,5,0,0,0.00
2013-3-30,73.5,66.0,56.3,63.0,-8.8,-99.9,69,24,1,30.18,30.07,12,2,0,0.00
2013-3-31,76.7,68.8,61.5,67.0,-34.6,-202.0,72,13,1,30.10,29.94,11,3,0,0.00
2013-4-1,82.2,73.5,66.6,78.0,-21.1,-202.0,87,20,1,29.96,29.83,16,6,0,0.00
2013-4-2,79.0,71.2,64.7,60.0,-51.3,-202.0,55,10,2,30.00,29.91,9,2,0,0.00
2013-4-3,78.8,73.6,69.4,52.0,-40.5,-202.0,39,10,1,30.00,29.91,10,2,0,0.00
2013-4-4,74.2,71.7,68.1,9.0,-76.2,-202.0,8,1,1,29.95,29.80,20,5,0,0.00
2013-4-5,75.3,68.5,62.4,47.0,-75.4,-202.0,38,3,1,29.86,29.71,16,4,0,0.00
2013-4-6,76.5,67.8,58.0,71.0,-10.3,-202.0,85,27,2,30.04,29.88,8,2,0,0.00
2013-4-7,77.9,73.3,68.9,78.0,58.8,29.0,100,68,23,30.08,29.97,7,2,0,0.00
2013-4-8,80.9,72.8,65.3,81.0,47.5,-18.0,100,57,3,30.07,29.98,7,1,0,0.00
2013-4-9,80.1,75.1,69.1,80.0,63.8,25.0,100,76,19,30.11,30.00,9,2,0,0.00
2013-4-10,77.7,76.6,73.7,78.0,72.8,53.0,100,90,49,30.05,29.94,10,1,0,0.00
2013-4-11,79.9,76.0,72.7,80.0,66.7,49.0,100,76,44,29.94,29.79,15,5,0,0.00
2013-4-12,87.2,80.0,75.1,87.0,77.5,64.0,100,92,69,29.84,29.74,14,6,0,0.00
2013-4-13,80.3,80.3,80.3,80.0,80.0,80.0,100,100,100,29.91,29.80,0,0,0,0.00
2013-4-14,80.3,80.3,80.3,80.0,80.0,80.0,100,100,100,29.90,29.77,0,0,0,0.00
2013-4-15,80.3,80.3,80.3,80.0,80.0,80.0,100,100,100,29.99,29.84,0,0,0,0.00
2013-4-16,85.3,80.5,74.0,85.0,80.4,74.0,100,100,100,30.07,29.96,5,1,0,0.00
2013-4-17,84.7,77.7,71.3,85.0,77.8,71.0,100,100,100,30.06,29.97,5,1,0,0.00
2013-4-18,83.4,78.8,72.0,83.0,78.8,72.0,100,100,100,29.99,29.91,8,1,0,0.00
2013-4-19,83.2,80.2,76.3,83.0,80.3,76.0,100,100,100,29.96,29.84,19,3,0,0.00
2013-4-20,80.1,74.6,66.8,80.0,72.7,58.0,100,94,72,30.03,29.88,9,1,0,0.00
2013-4-21,82.2,73.4,67.1,82.0,72.1,60.0,100,96,79,30.04,29.93,7,1,0,0.00
2013-4-22,80.5,74.6,69.9,81.0,74.5,68.0,100,100,93,29.99,29.89,6,1,0,0.00
2013-4-23,82.6,76.4,69.4,83.0,76.4,69.0,100,100,100,30.03,29.91,7,1,0,0.00
2013-4-24,81.8,75.3,69.8,82.0,75.4,70.0,100,100,100,30.07,29.98,6,1,0,0.00
2013-4-25,73.7,73.4,73.0,74.0,73.4,73.0,100,100,100,30.06,30.01,8,2,0,0.00
2013-4-26,84.3,76.5,68.8,84.0,76.5,69.0,100,100,100,30.16,30.07,6,1,0,0.00
2013-4-27,82.4,75.8,73.2,82.0,75.8,73.0,100,100,100,30.14,30.04,9,2,0,0.00
2013-4-28,80.1,75.7,73.2,80.0,75.7,73.0,100,100,100,30.06,29.94,10,3,0,0.00
2013-4-29,81.8,76.7,73.2,82.0,76.7,73.0,100,100,100,29.96,29.84,14,4,0,0.00
2013-4-30,81.4,76.5,71.8,81.0,76.6,71.0,100,100,96,29.92,29.86,7,1,0,0.00
2013-5-1,77.7,77.7,77.7,78.0,78.0,78.0,100,100,100,29.94,29.86,0,0,0,0.00
2013-5-2,77.7,72.8,67.1,78.0,67.3,41.0,100,86,39,29.86,29.75,14,3,0,0.00
2013-5-3,81.8,75.3,70.1,82.0,74.0,60.0,100,96,71,29.75,29.56,12,4,0,0.00
2013-5-4,83.6,74.5,68.8,84.0,73.7,63.0,100,97,80,29.70,29.59,9,3,0,0.00
2013-5-5,77.4,72.0,65.6,77.0,72.0,66.0,100,100,100,29.84,29.66,16,7,0,0.00
2013-5-6,78.8,71.5,64.2,79.0,71.5,62.0,100,100,93,29.91,29.81,16,7,0,0.00
2013-5-7,76.7,70.6,61.2,77.0,68.3,52.0,100,92,71,29.97,29.88,14,2,0,0.00
2013-5-8,76.7,76.7,76.7,77.0,77.0,77.0,100,100,100,30.05,29.94,0,0,0,0.00
2013-5-9,76.7,76.7,76.7,77.0,77.0,77.0,100,100,100,30.07,30.00,0,0,0,0.00
2013-5-10,76.7,76.7,76.7,77.0,77.0,77.0,100,100,100,30.05,29.94,0,0,0,0.00
2013-5-11,76.7,76.7,76.7,77.0,77.0,77.0,100,100,100,29.98,29.87,0,0,0,0.00
2013-5-12,78.3,76.3,71.8,78.0,76.4,69.0,100,100,91,29.95,29.85,6,0,0,0.00
2013-5-13,79.9,76.1,70.6,80.0,76.1,69.0,100,100,93,30.03,29.90,6,2,0,0.00
2013-5-14,83.0,77.5,69.9,83.0,77.5,70.0,100,100,100,30.12,30.03,6,1,0,0.00
2013-5-15,83.0,75.3,67.6,83.0,75.4,68.0,100,100,100,30.14,30.03,9,1,0,0.00
2013-5-16,81.6,75.6,69.4,82.0,75.6,69.0,100,100,100,30.05,29.97,6,2,0,0.00
2013-5-17,86.7,77.8,70.6,87.0,77.2,61.0,100,98,71,30.02,29.95,7,2,0,0.00
2013-5-18,85.7,78.9,71.5,86.0,75.3,48.0,100,90,43,30.04,29.96,10,2,0,0.00
2013-5-19,81.2,76.7,74.4,81.0,70.6,53.0,100,83,48,30.03,29.94,8,2,0,0.00
2013-5-20,82.2,77.0,73.5,82.0,69.0,52.0,100,79,47,30.01,29.92,6,1,0,0.00
2013-5-21,83.6,76.2,71.1,84.0,70.2,44.0,100,84,38,29.95,29.88,9,1,0,0.00
2013-5-22,83.2,77.6,73.3,83.0,76.4,65.0,100,97,76,29.90,29.83,5,0,0,0.00
2013-5-23,79.2,75.6,73.5,79.0,75.3,74.0,100,100,100,29.91,29.83,4,0,0,0.00
2013-5-24,75.3,75.3,75.3,75.0,75.0,75.0,100,100,100,30.00,29.87,0,0,0,0.00
2013-5-25,75.3,75.3,75.3,75.0,75.0,75.0,100,100,100,30.11,29.99,0,0,0,0.00
2013-5-26,75.3,75.3,75.3,75.0,75.0,75.0,100,100,100,30.14,30.06,0,0,0,0.00
2013-5-27,85.3,78.3,75.3,85.0,78.2,75.0,100,100,100,30.11,30.03,10,2,0,0.00
2013-5-28,85.7,78.9,75.3,86.0,78.9,75.0,100,100,100,30.06,30.00,16,3,0,0.00
2013-5-29,77.2,75.3,71.5,77.0,64.5,41.0,100,71,33,30.07,29.97,8,2,0,0.00
2013-5-30,80.3,76.6,76.1,80.0,69.7,67.0,100,79,73,30.05,29.97,12,1,0,0.00
2013-5-31,84.7,80.0,76.8,85.0,80.0,77.0,100,100,100,30.03,29.97,13,4,0,0.00
2013-6-1,86.3,80.0,76.0,86.0,79.9,76.0,100,100,100,29.99,29.91,7,3,0,0.00
2013-6-2,77.6,77.6,77.6,78.0,78.0,78.0,100,100,100,29.93,29.82,0,0,0,0.00
2013-6-3,77.6,76.3,76.0,78.0,76.4,76.0,100,100,100,29.93,29.83,1,0,0,0.00
2013-6-4,81.8,76.5,76.0,82.0,76.5,76.0,100,100,100,29.95,29.86,4,0,0,0.00
2013-6-5,77.0,76.7,75.3,77.0,76.7,75.0,100,100,100,29.94,29.84,2,0,0,0.00
2013-6-6,77.9,76.1,72.8,78.0,76.1,73.0,100,100,100,29.84,29.64,14,4,0,0.00
2013-6-7,87.4,80.3,74.6,87.0,80.3,75.0,100,100,100,29.87,29.70,12,5,0,0.00
2013-6-8,86.1,77.4,73.2,86.0,77.4,73.0,100,100,100,30.01,29.87,13,2,0,0.00
2013-6-9,87.0,78.8,73.2,87.0,78.8,73.0,100,100,100,30.04,29.96,7,1,0,0.00
2013-6-10,87.0,80.9,76.0,87.0,80.9,76.0,100,100,100,30.02,29.94,11,1,0,0.00
2013-6-11,87.8,80.5,76.0,88.0,80.5,76.0,100,100,100,30.00,29.92,5,1,0,0.00
2013-6-12,89.5,80.9,75.1,90.0,81.0,75.0,100,100,100,30.00,29.93,12,2,0,0.00
2013-6-13,89.0,81.5,76.0,89.0,81.6,76.0,100,100,100,29.95,29.82,12,3,0,0.00
2013-6-14,90.5,83.2,75.6,91.0,83.3,76.0,100,100,100,29.85,29.75,11,5,0,0.00
2013-6-15,82.8,81.0,77.4,83.0,81.0,77.0,100,100,100,29.98,29.83,7,1,0,0.00
2013-6-16,88.0,83.7,82.0,88.0,83.7,82.0,100,100,100,30.01,29.95,6,1,0,0.00
2013-6-17,82.4,79.9,79.4,82.0,79.7,79.0,100,100,100,30.00,29.92,6,1,0,0.00
2013-6-18,89.9,82.8,76.7,90.0,82.9,77.0,100,100,100,29.98,29.88,13,3,0,0.00
2013-6-19,88.4,80.9,75.1,88.0,81.0,75.0,100,100,100,29.96,29.88,13,3,0,0.00
2013-6-20,87.8,78.7,75.8,88.0,79.0,76.0,100,100,100,30.02,29.93,5,0,0,0.00
2013-6-21,87.0,77.9,73.7,87.0,77.9,74.0,100,100,100,30.05,29.95,5,1,0,0.00
2013-6-22,91.4,81.2,73.5,91.0,81.2,74.0,100,100,100,30.05,29.97,4,1,0,0.00
2013-6-23,89.0,80.6,75.8,89.0,80.7,76.0,100,100,100,30.07,29.98,5,1,0,0.00
2013-6-24,89.9,82.1,76.5,90.0,82.2,77.0,100,100,100,30.11,30.02,6,1,0,0.00
2013-6-25,91.6,82.3,76.7,92.0,82.5,77.0,100,100,100,30.08,29.98,5,1,0,0.00
2013-6-26,88.2,80.6,77.7,88.0,80.7,78.0,100,100,100,30.00,29.93,8,2,0,0.00
2013-6-27,78.6,77.7,77.6,79.0,78.1,78.0,100,100,100,29.97,29.85,4,0,0,0.00
2013-6-28,77.9,77.5,75.8,78.0,77.9,76.0,100,100,100,29.89,29.75,3,0,0,0.00
2013-6-29,77.7,77.4,74.4,78.0,77.7,74.0,100,100,100,29.81,29.74,9,1,0,0.00
2013-6-30,78.1,77.5,75.6,78.0,77.5,76.0,100,100,100,29.84,29.75,9,1,0,0.00
2013-7-1,78.1,76.4,72.8,78.0,76.4,73.0,100,100,100,29.97,29.81,9,0,0,0.00
2013-7-2,72.8,72.3,72.3,73.0,72.0,72.0,100,100,100,30.03,29.91,0,0,0,0.00
2013-7-3,78.1,73.2,72.3,78.0,72.9,72.0,100,100,100,30.06,29.98,0,0,0,0.00
2013-7-4,85.7,79.4,73.5,86.0,79.5,74.0,100,100,100,30.08,30.01,10,1,0,0.00
2013-7-5,85.1,80.4,74.4,85.0,80.4,74.0,100,100,100,30.08,30.00,5,1,0,0.00
2013-7-6,86.7,80.1,75.1,87.0,80.1,75.0,100,100,100,30.06,29.99,7,1,0,0.00
2013-7-7,87.6,81.5,75.4,88.0,81.5,75.0,100,100,100,30.05,29.98,7,1,0,0.00
2013-7-8,91.2,82.8,76.8,91.0,82.9,77.0,100,100,100,30.08,30.01,4,0,0,0.00
2013-7-9,85.9,79.2,76.3,86.0,79.5,76.0,100,100,100,30.10,29.99,0,0,0,0.00
2013-7-10,87.6,80.7,75.8,88.0,80.8,76.0,100,100,100,30.01,29.91,12,1,0,0.00
2013-7-11,87.8,80.9,76.5,88.0,81.0,77.0,100,100,100,29.97,29.85,11,1,0,0.00
2013-7-12,89.3,79.7,75.4,89.0,79.8,75.0,100,100,100,29.88,29.80,6,1,0,0.00
2013-7-13,86.5,77.8,74.2,87.0,77.8,74.0,100,100,100,29.92,29.83,9,1,0,0.00
2013-7-14,83.8,76.5,73.0,84.0,76.6,73.0,100,100,100,30.02,29.91,11,1,0,0.00
2013-7-15,87.6,77.9,71.6,88.0,78.0,72.0,100,100,100,30.05,29.95,0,0,0,0.00
2013-7-16,88.2,79.5,75.4,88.0,79.5,75.0,100,100,100,30.08,30.01,0,0,0,0.00
2013-7-17,79.0,79.0,79.0,79.0,79.0,79.0,100,100,100,30.07,30.00,0,0,0,0.00
2013-7-18,84.9,80.2,75.4,85.0,80.1,75.0,100,100,100,30.05,29.97,0,0,0,0.00
2013-7-19,88.2,79.7,74.6,88.0,79.7,75.0,100,100,100,30.05,29.95,0,0,0,0.00
2013-7-20,83.4,80.5,74.4,83.0,80.2,74.0,100,100,100,30.03,29.94,0,0,0,0.00
2013-7-21,83.4,81.4,78.6,83.0,81.1,79.0,100,100,100,30.06,29.96,5,0,0,0.00
2013-7-22,80.3,80.3,80.3,80.0,80.0,80.0,100,100,100,30.06,29.97,0,0,0,0.00
2013-7-23,81.6,79.9,76.8,82.0,80.1,77.0,100,100,100,30.01,29.87,3,0,0,0.00
2013-7-24,87.2,79.3,74.6,87.0,79.4,75.0,100,100,100,29.92,29.81,21,4,0,0.00
2013-7-25,82.4,79.5,74.7,82.0,79.6,75.0,100,100,100,29.89,29.80,13,3,0,0.00
2013-7-26,90.7,81.9,75.8,91.0,81.9,76.0,100,100,100,29.92,29.86,10,1,0,0.00
2013-7-27,89.3,82.7,77.0,89.0,82.7,77.0,100,100,100,29.91,29.83,9,1,0,0.00
2013-7-28,79.8,78.4,77.9,80.0,78.2,78.0,100,100,100,29.98,29.84,3,0,0,0.00
2013-7-29,90.7,82.1,76.0,91.0,82.2,76.0,100,100,100,30.06,29.95,4,0,0,0.00
2013-7-30,91.2,82.9,77.6,91.0,82.9,78.0,100,100,100,30.09,30.02,7,1,0,0.00
2013-7-31,89.7,84.1,77.7,90.0,84.1,78.0,100,100,100,30.05,29.94,7,0,0,0.00
2013-8-1,87.4,87.4,87.4,87.0,87.0,87.0,100,100,100,29.98,29.88,0,0,0,0.00
2013-8-2,87.4,86.7,81.8,87.0,86.3,82.0,100,100,100,29.94,29.85,6,0,0,0.00
2013-8-3,86.1,80.2,74.7,86.0,68.1,34.0,100,74,23,30.02,29.91,14,2,0,0.00
2013-8-4,84.7,81.9,76.8,72.0,58.1,29.0,66,49,17,30.00,29.89,7,2,0,0.00
2013-8-5,84.7,84.7,84.7,72.0,72.0,72.0,66,66,66,29.93,29.84,0,0,0,0.00
2013-8-6,91.6,83.3,75.1,79.0,8.3,-99.9,67,27,1,29.89,29.82,4,0,0,0.00
2013-8-7,90.3,84.1,78.1,59.0,-13.6,-99.9,35,11,1,29.90,29.83,7,1,0,0.00
2013-8-8,90.7,84.1,78.8,34.0,-53.0,-202.0,14,3,1,29.95,29.87,8,1,0,0.00
2013-8-9,90.5,83.7,79.9,-99.9,-99.9,-202.0,0,0,100,30.00,29.89,7,2,0,0.00
2013-8-10,89.7,83.0,77.2,-99.9,-99.9,-202.0,0,0,100,30.05,29.97,5,1,0,0.00
2013-8-11,91.0,83.8,78.6,-17.0,-88.6,-202.0,2,0,1,30.07,30.00,7,1,0,0.00
2013-8-12,92.1,84.0,76.1,21.0,-40.0,-99.9,12,4,3,30.04,29.94,4,0,0,0.00
2013-8-13,91.4,84.3,78.1,41.0,22.3,-11.0,22,12,2,29.98,29.86,9,2,0,0.00
2013-8-14,91.6,83.6,77.9,50.0,43.1,27.0,37,25,10,29.94,29.83,11,3,0,0.00
2013-8-15,81.4,79.5,78.6,64.0,63.0,58.0,61,57,45,29.95,29.86,6,1,0,0.00
2013-8-16,79.2,79.2,79.2,64.0,64.0,64.0,59,59,59,29.97,29.89,0,0,0,0.00
2013-8-17,90.1,82.1,79.2,81.0,71.2,64.0,93,70,59,30.00,29.93,7,1,0,0.00
2013-8-18,87.4,80.6,79.4,82.0,78.1,77.0,96,92,83,30.03,29.94,5,0,0,0.00
2013-8-19,91.0,84.6,79.6,84.0,81.0,78.0,100,89,79,30.01,29.89,7,1,0,0.00
2013-8-20,92.7,84.4,79.4,85.0,80.6,76.0,99,88,77,30.02,29.92,6,1,0,0.00
2013-8-21,91.6,82.7,78.3,87.0,81.3,76.0,100,95,85,30.03,29.95,7,1,0,0.00
2013-8-22,89.5,85.0,77.2,87.0,83.4,77.0,100,94,91,30.00,29.90,4,0,0,0.00
2013-8-23,90.3,85.3,79.0,87.0,83.5,79.0,100,94,85,29.94,29.87,8,1,0,0.00
2013-8-24,91.4,83.0,79.0,89.0,82.0,78.0,100,97,89,30.02,29.91,8,1,0,0.00
2013-8-25,86.1,80.0,76.1,85.0,79.9,76.0,100,100,97,30.08,29.98,4,0,0,0.00
2013-8-26,91.4,82.9,75.8,91.0,82.3,76.0,100,98,91,30.05,29.94,4,0,0,0.00
2013-8-27,90.5,86.3,77.2,87.0,83.5,77.0,100,92,86,29.97,29.91,7,0,0,0.00
2013-8-28,91.6,87.5,81.2,89.0,85.1,81.0,100,93,89,29.97,29.89,1,0,0,0.00
2013-8-29,89.5,81.3,76.8,88.0,80.8,77.0,100,98,93,29.94,29.86,3,0,0,0.00
2013-8-30,89.7,83.2,77.2,88.0,81.6,77.0,100,95,87,29.91,29.81,6,1,0,0.00
2013-8-31,91.0,87.2,82.8,87.0,83.2,79.0,90,89,82,29.90,29.81,6,0,0,0.00
2013-9-1,91.0,91.0,91.0,87.0,87.0,87.0,89,89,89,29.91,29.84,0,0,0,0.00
2013-9-2,91.4,81.2,76.0,87.0,79.5,76.0,100,95,84,29.94,29.84,8,1,0,0.00
2013-9-3,81.2,76.3,75.4,81.0,76.2,75.0,100,100,97,29.94,29.85,6,1,0,0.00
2013-9-4,92.1,83.0,76.8,87.0,81.8,77.0,100,96,83,30.00,29.88,6,0,0,0.00
2013-9-5,93.2,85.5,79.4,90.0,84.4,79.0,100,96,89,30.01,29.93,2,0,0,0.00
2013-9-6,81.6,81.6,81.6,82.0,82.0,82.0,100,100,100,29.97,29.86,0,0,0,0.00
2013-9-7,81.6,81.6,81.6,82.0,82.0,82.0,100,100,100,29.92,29.84,0,0,0,0.00
2013-9-8,81.6,81.6,81.6,82.0,82.0,82.0,100,100,100,29.88,29.80,0,0,0,0.00
2013-9-9,92.7,84.6,75.8,87.0,82.6,76.0,100,93,81,29.94,29.83,7,0,0,0.00
2013-9-10,80.3,79.7,76.5,78.0,75.4,75.0,100,88,86,30.00,29.91,4,0,0,0.00
2013-9-11,79.9,79.9,79.9,75.0,75.0,75.0,86,86,86,30.00,29.92,0,0,0,0.00
2013-9-12,79.9,79.9,79.9,75.0,75.0,75.0,86,86,86,29.94,29.82,0,0,0,0.00
2013-9-13,79.9,79.9,79.9,75.0,75.0,75.0,86,86,86,29.83,29.72,0,0,0,0.00
2013-9-14,90.7,82.7,77.9,83.0,79.9,78.0,100,91,76,29.89,29.74,4,0,0,0.00
2013-9-15,82.8,81.2,75.6,81.0,79.4,74.0,100,94,84,30.00,29.88,14,1,0,0.00
2013-9-16,91.2,81.5,75.3,83.0,78.4,75.0,100,91,72,29.99,29.91,6,1,0,0.00
2013-9-17,89.0,81.3,76.5,82.0,78.4,77.0,100,91,77,29.99,29.88,7,1,0,0.00
2013-9-18,86.3,80.3,77.4,81.0,78.5,77.0,100,94,84,29.94,29.86,9,2,0,0.00
2013-9-19,90.5,84.1,77.9,81.0,78.7,76.0,98,84,70,29.95,29.88,4,0,0,0.00
2013-9-20,90.5,83.1,76.7,79.0,74.2,71.0,94,75,62,29.94,29.83,5,0,0,0.00
2013-9-21,88.2,81.6,75.6,77.0,74.3,72.0,98,79,64,29.85,29.70,5,1,0,0.00
2013-9-22,89.0,80.9,75.8,80.0,77.3,75.0,100,89,71,29.77,29.66,10,3,0,0.00
2013-9-23,87.6,78.7,74.2,81.0,77.6,74.0,100,96,80,29.91,29.75,7,1,0,0.00
2013-9-24,84.9,78.9,76.1,81.0,77.8,76.0,100,96,84,29.88,29.75,10,3,0,0.00
2013-9-25,82.4,78.7,75.1,77.0,75.8,74.0,100,91,77,29.77,29.70,17,6,0,0.00
2013-9-26,77.9,77.2,76.8,77.0,77.0,77.0,100,100,98,29.75,29.67,9,1,0,0.00
2013-9-27,86.1,77.9,72.1,79.0,76.3,72.0,100,95,76,29.85,29.74,6,1,0,0.00
2013-9-28,80.3,76.2,74.9,75.0,74.7,73.0,100,95,79,29.91,29.81,3,0,0,0.00
2013-9-29,90.1,81.4,74.6,79.0,75.3,72.0,100,82,67,29.89,29.82,5,0,0,0.00
2013-9-30,88.6,81.2,73.2,77.0,75.4,73.0,100,83,67,29.93,29.83,5,0,0,0.00
2013-10-1,79.8,79.8,79.8,75.0,75.0,75.0,86,86,86,29.97,29.88,0,0,0,0.00
2013-10-2,79.8,79.8,79.8,75.0,75.0,75.0,86,86,86,29.98,29.91,0,0,0,0.00
2013-10-3,79.8,79.8,79.8,75.0,75.0,75.0,86,86,86,29.99,29.89,0,0,0,0.00
2013-10-4,79.8,79.8,79.8,75.0,75.0,75.0,86,86,86,30.00,29.92,0,0,0,0.00
2013-10-5,80.5,79.8,79.8,78.0,75.1,75.0,91,86,86,29.97,29.88,4,0,0,0.00
2013-10-6,90.5,82.3,77.4,80.0,77.0,74.0,97,84,68,29.89,29.80,6,1,0,0.00
2013-10-7,85.1,81.5,75.6,80.0,77.7,76.0,100,88,77,29.79,29.70,7,2,0,0.00
2013-10-8,87.4,82.9,75.8,79.0,77.2,75.0,100,84,67,29.83,29.71,12,3,0,0.00
2013-10-9,84.9,77.7,73.5,77.0,75.4,73.0,100,93,76,29.92,29.80,8,2,0,0.00
2013-10-10,86.3,78.0,70.6,77.0,72.8,68.0,100,84,66,29.96,29.88,7,1,0,0.00
2013-10-11,88.8,78.1,69.4,74.0,70.0,66.0,100,78,53,29.95,29.86,3,0,0,0.00
2013-10-12,88.6,79.3,71.8,75.0,71.8,67.0,99,79,61,29.95,29.88,3,0,0,0.00
2013-10-13,88.4,78.7,71.3,73.0,70.1,67.0,97,76,51,29.99,29.90,6,1,0,0.00
2013-10-14,86.1,78.5,72.5,76.0,74.1,69.0,100,87,66,29.94,29.85,6,1,0,0.00
2013-10-15,73.9,72.8,72.7,74.0,73.0,73.0,100,100,100,29.89,29.80,6,0,0,0.00
2013-10-16,72.7,72.7,72.7,73.0,73.0,73.0,100,100,100,29.88,29.81,0,0,0,0.00
2013-10-17,88.8,79.0,72.0,79.0,75.6,72.0,100,90,70,29.89,29.82,3,0,0,0.00
2013-10-18,87.4,80.5,74.9,81.0,77.6,75.0,100,91,75,29.91,29.83,8,1,0,0.00
2013-10-19,86.7,80.5,78.6,81.0,79.3,76.0,100,96,82,29.88,29.79,6,1,0,0.00
2013-10-20,80.7,80.7,80.7,80.0,80.0,80.0,97,97,97,29.88,29.78,0,0,0,0.00
2013-10-21,80.7,80.7,80.7,80.0,80.0,80.0,97,97,97,29.91,29.82,0,0,0,0.00
2013-10-22,80.7,80.7,80.7,80.0,80.0,80.0,97,97,97,29.87,29.72,0,0,0,0.00
2013-10-23,80.7,79.7,72.7,80.0,75.0,63.0,97,86,71,29.90,29.71,5,0,0,0.00
2013-10-24,76.8,71.8,68.8,68.0,64.2,60.0,97,77,65,30.05,29.89,9,2,0,0.00
2013-10-25,81.1,72.8,67.1,70.0,67.0,63.0,100,83,65,30.12,30.03,7,2,0,0.00
2013-10-26,82.2,73.4,67.3,66.0,63.7,61.0,89,73,51,30.10,30.00,3,0,0,0.00
2013-10-27,80.9,72.1,64.0,67.0,65.5,64.0,100,81,59,30.03,29.97,5,1,0,0.00
2013-10-28,85.3,76.0,67.8,72.0,69.4,67.0,100,81,63,30.09,29.99,4,1,0,0.00
2013-10-29,87.6,77.9,69.6,74.0,71.6,69.0,100,82,60,30.12,30.04,6,1,0,0.00
2013-10-30,86.7,79.9,76.7,74.0,72.8,72.0,87,79,64,30.14,30.03,3,0,0,0.00
2013-10-31,79.9,79.9,79.9,72.0,72.0,72.0,76,76,76,30.05,29.92,0,0,0,0.00
2013-11-1,86.7,80.6,76.1,79.0,73.7,72.0,97,79,70,29.93,29.78,6,1,0,0.00
2013-11-2,81.6,77.9,70.8,75.0,73.6,71.0,100,87,78,29.86,29.73,13,2,0,0.00
2013-11-3,81.6,78.6,72.8,74.0,67.9,58.0,78,70,53,30.00,29.84,7,1,0,0.00
2013-11-4,79.9,75.2,71.6,73.0,67.0,60.0,100,76,63,30.05,29.97,15,3,0,0.00
2013-11-5,84.9,76.8,70.6,77.0,74.2,71.0,100,92,76,30.06,29.98,10,3,0,0.00
2013-11-6,84.9,78.5,72.1,77.0,74.3,71.0,100,87,72,30.02,29.94,5,1,0,0.00
2013-11-7,75.4,74.1,70.1,75.0,73.9,70.0,100,100,100,29.95,29.86,2,0,0,0.00
2013-11-8,80.1,73.5,69.9,76.0,72.2,70.0,100,96,88,30.01,29.89,12,2,0,0.00
2013-11-9,74.4,74.4,74.4,72.0,72.0,72.0,91,91,91,30.09,29.99,0,0,0,0.00
2013-11-10,83.4,76.2,71.5,76.0,73.6,72.0,100,92,77,30.08,30.00,6,1,0,0.00
2013-11-11,71.1,70.8,70.4,71.0,70.9,70.0,100,100,100,30.02,30.01,4,2,0,0.00
2013-11-12,81.4,74.4,69.6,77.0,72.8,68.0,99,95,85,29.99,29.91,4,1,0,0.00
2013-11-16,80.5,75.2,70.3,75.0,73.6,70.0,100,95,80,30.04,29.95,4,0,0,0.00
2013-11-17,74.4,74.2,72.1,74.0,73.9,72.0,100,100,100,30.01,29.92,2,0,0,0.00
2013-11-18,87.2,76.1,70.9,78.0,74.6,71.0,100,96,68,29.94,29.83,4,1,0,0.00
2013-11-19,80.5,74.4,71.5,76.0,72.5,71.0,100,94,78,29.87,29.78,6,2,0,0.00
2013-11-20,74.9,74.8,73.9,75.0,74.9,74.0,100,100,100,30.02,29.85,3,0,0,0.00
2013-11-21,74.9,74.9,74.9,75.0,75.0,75.0,100,100,100,30.09,30.00,0,0,0,0.00
2013-11-22,74.9,74.9,74.9,75.0,75.0,75.0,100,100,100,30.11,30.02,0,0,0,0.00
2013-11-23,82.6,75.4,70.9,82.0,73.5,71.0,100,94,69,30.02,29.92,1,0,0,0.00
2013-11-24,76.0,70.1,67.1,70.0,66.8,60.0,100,90,75,30.13,29.92,9,2,0,0.00
2013-11-25,69.4,69.1,68.1,63.0,61.7,58.0,79,77,68,30.16,30.00,7,1,0,0.00
2013-11-26,69.1,69.1,69.1,62.0,62.0,62.0,78,78,78,29.99,29.69,0,0,0,0.00
2013-11-27,69.1,69.0,68.3,63.0,62.1,62.0,83,78,78,29.79,29.63,17,2,0,0.00
2013-12-25,71.9,70.4,69.5,59.0,57.7,56.0,70,64,58,30.09,30.07,3,1,0,0.00
2013-12-26,76.3,71.8,61.2,65.0,61.8,57.0,91,72,64,30.11,30.01,6,1,0,0.00
2013-12-27,76.3,73.8,68.6,68.0,64.7,63.0,95,75,64,30.14,30.05,6,0,0,0.00
2013-12-28,76.4,72.7,68.4,71.0,69.2,67.0,97,89,81,30.12,29.95,7,2,0,0.06
2013-12-29,75.9,73.4,70.4,74.0,71.2,68.0,97,93,87,29.93,29.79,12,4,0,0.98
2013-12-30,70.3,65.0,60.7,69.0,61.2,52.0,96,87,71,30.10,29.89,10,2,0,0.00
2013-12-31,68.8,66.6,64.2,58.0,57.3,56.0,77,72,67,30.19,30.07,11,3,0,0.00
2014-1-1,70.3,68.5,67.0,67.0,65.3,62.0,98,90,74,30.11,30.02,4,1,0,0.76
2014-1-2,79.9,74.9,69.9,70.0,69.5,69.0,97,84,71,29.89,29.77,4,2,0,0.00